^^
Your Local Weather - Clay, NY Station Historical Data
Daily Summary for July 2, 2017 Units:  English    Metric   Both
« Previous Day
Next Day »
Daily Weekly Monthly Yearly Custom
  High: Low: Average:
Temperature: 81.0 °F 60.1 °F 71.6 °F
Dew Point: 66.1 °F 55.8 °F 61 °F
Humidity: 94% 50% 71%
Wind Speed: 4.0mph 0.0mph 1mph
Wind Gust: 10.0mph - -
Wind- - West
Pressure: 29.93 in 29.85 in -
Precipitation: 0.00 in    
Historical Graphs
 
 
Tabular Data for July 2, 2017
Time Temperature Dew Point Pressure Wind Wind Speed Wind Gust Humidity Rainfall Rate (Hourly) solar
00:04 68.8 °F 63.4 °F 29.85 in Calm     83% 0.00 in 0 W/m2
00:09 68.5 °F 63.1 °F 29.85 in Calm     83% 0.00 in 0 W/m2
00:15 68.0 °F 63.0 °F 29.85 in Calm     84% 0.00 in 0 W/m2
00:22 67.2 °F 62.9 °F 29.85 in Calm     86% 0.00 in 0 W/m2
00:28 66.6 °F 62.9 °F 29.85 in Calm     88% 0.00 in 0 W/m2
00:33 66.2 °F 62.5 °F 29.85 in Calm     88% 0.00 in 0 W/m2
00:39 65.8 °F 62.5 °F 29.85 in Calm     89% 0.00 in 0 W/m2
00:45 65.9 °F 62.6 °F 29.86 in Calm     89% 0.00 in 0 W/m2
00:51 66.0 °F 62.7 °F 29.86 in Calm     89% 0.00 in 0 W/m2
00:58 65.6 °F 62.3 °F 29.86 in Calm     89% 0.00 in 0 W/m2
01:04 65.1 °F 62.1 °F 29.86 in Calm     90% 0.00 in 0 W/m2
01:10 64.8 °F 61.8 °F 29.86 in Calm     90% 0.00 in 0 W/m2
01:16 64.5 °F 61.5 °F 29.86 in Calm     90% 0.00 in 0 W/m2
01:22 64.3 °F 61.3 °F 29.86 in Calm     90% 0.00 in 0 W/m2
01:28 64.1 °F 61.4 °F 29.86 in Calm     91% 0.00 in 0 W/m2
01:34 64.0 °F 61.3 °F 29.86 in Calm     91% 0.00 in 0 W/m2
01:40 63.8 °F 61.1 °F 29.86 in Calm     91% 0.00 in 0 W/m2
01:46 63.7 °F 61.3 °F 29.86 in Calm     92% 0.00 in 0 W/m2
01:52 63.6 °F 61.2 °F 29.86 in Calm     92% 0.00 in 0 W/m2
01:58 63.4 °F 61.0 °F 29.86 in Calm     92% 0.00 in 0 W/m2
02:04 63.3 °F 60.9 °F 29.86 in Calm     92% 0.00 in 0 W/m2
02:10 63.1 °F 60.7 °F 29.86 in Calm     92% 0.00 in 0 W/m2
02:16 62.9 °F 60.5 °F 29.86 in Calm     92% 0.00 in 0 W/m2
02:22 62.7 °F 60.3 °F 29.86 in Calm     92% 0.00 in 0 W/m2
02:28 62.5 °F 60.1 °F 29.86 in Calm     92% 0.00 in 0 W/m2
02:34 62.4 °F 60.0 °F 29.86 in Calm     92% 0.00 in 0 W/m2
02:40 62.3 °F 59.9 °F 29.86 in Calm     92% 0.00 in 0 W/m2
02:46 62.2 °F 60.2 °F 29.86 in Calm     93% 0.00 in 0 W/m2
02:52 62.3 °F 60.2 °F 29.86 in Calm     93% 0.00 in 0 W/m2
02:58 62.1 °F 60.1 °F 29.86 in Calm     93% 0.00 in 0 W/m2
03:04 61.9 °F 59.5 °F 29.85 in Calm     92% 0.00 in 0 W/m2
03:10 61.8 °F 59.8 °F 29.85 in Calm     93% 0.00 in 0 W/m2
03:16 61.6 °F 59.6 °F 29.85 in Calm     93% 0.00 in 0 W/m2
03:22 61.5 °F 59.5 °F 29.85 in Calm     93% 0.00 in 0 W/m2
03:28 61.4 °F 59.4 °F 29.85 in Calm     93% 0.00 in 0 W/m2
03:34 61.3 °F 59.3 °F 29.86 in Calm     93% 0.00 in 0 W/m2
03:40 61.1 °F 59.1 °F 29.86 in Calm     93% 0.00 in 0 W/m2
03:46 60.9 °F 58.9 °F 29.86 in Calm     93% 0.00 in 0 W/m2
03:52 60.8 °F 58.8 °F 29.86 in Calm     93% 0.00 in 0 W/m2
03:58 60.6 °F 58.6 °F 29.86 in Calm     93% 0.00 in 0 W/m2
04:04 60.5 °F 58.5 °F 29.86 in Calm     93% 0.00 in 0 W/m2
04:10 60.4 °F 58.4 °F 29.87 in Calm     93% 0.00 in 0 W/m2
04:16 60.2 °F 58.2 °F 29.87 in Calm     93% 0.00 in 0 W/m2
04:22 60.2 °F 58.2 °F 29.87 in Calm     93% 0.00 in 0 W/m2
04:28 60.1 °F 58.1 °F 29.87 in Calm     93% 0.00 in 0 W/m2
04:34 60.1 °F 58.1 °F 29.88 in Calm     93% 0.00 in 0 W/m2
04:40 60.1 °F 58.1 °F 29.88 in Calm     93% 0.00 in 0 W/m2
04:46 60.6 °F 58.9 °F 29.88 in Calm     94% 0.00 in 0 W/m2
04:52 61.3 °F 59.6 °F 29.88 in Calm   2.0 mph 94% 0.00 in 0 W/m2
04:58 61.9 °F 60.2 °F 29.88 in WNW 1.0 mph 2.0 mph 94% 0.00 in 0 W/m2
05:04 62.4 °F 60.7 °F 29.88 in Calm   1.0 mph 94% 0.00 in 0 W/m2
05:10 62.7 °F 60.6 °F 29.88 in Calm     93% 0.00 in 0 W/m2
05:16 63.1 °F 60.7 °F 29.88 in Calm   3.0 mph 92% 0.00 in 0 W/m2
05:22 63.5 °F 60.8 °F 29.88 in WNW 1.0 mph 1.0 mph 91% 0.00 in 0 W/m2
05:28 63.8 °F 60.8 °F 29.88 in Calm   3.0 mph 90% 0.00 in 0 W/m2
05:34 64.1 °F 60.8 °F 29.89 in Calm     89% 0.00 in 5 W/m2
05:40 64.2 °F 60.6 °F 29.89 in Calm     88% 0.00 in 7 W/m2
05:46 64.3 °F 60.3 °F 29.89 in Calm   2.0 mph 87% 0.00 in 11 W/m2
05:52 64.2 °F 60.2 °F 29.89 in Calm   1.0 mph 87% 0.00 in 14 W/m2
05:58 64.1 °F 60.2 °F 29.90 in Calm   1.0 mph 87% 0.00 in 18 W/m2
06:04 64.2 °F 60.2 °F 29.90 in Calm     87% 0.00 in 21 W/m2
06:10 64.3 °F 60.3 °F 29.90 in Calm     87% 0.00 in 28 W/m2
06:16 64.3 °F 60.3 °F 29.90 in Calm     87% 0.00 in 25 W/m2
06:22 64.3 °F 60.3 °F 29.90 in Calm     87% 0.00 in 30 W/m2
06:26 64.3 °F 60.7 °F 29.90 in Calm     88% 0.00 in 42 W/m2
06:32 64.3 °F 60.7 °F 29.91 in Calm     88% 0.00 in 42 W/m2
06:38 64.5 °F 60.9 °F 29.91 in Calm     88% 0.00 in 47 W/m2
06:44 64.5 °F 60.9 °F 29.91 in Calm     88% 0.00 in 44 W/m2
06:50 64.6 °F 61.0 °F 29.91 in Calm     88% 0.00 in 67 W/m2
06:56 64.8 °F 61.2 °F 29.91 in Calm     88% 0.00 in 81 W/m2
07:02 65.4 °F 61.8 °F 29.91 in Calm     88% 0.00 in 213 W/m2
07:08 66.0 °F 62.0 °F 29.91 in Calm     87% 0.00 in 202 W/m2
07:14 66.6 °F 61.9 °F 29.91 in Calm   3.0 mph 85% 0.00 in 218 W/m2
07:20 67.1 °F 62.1 °F 29.91 in Calm     84% 0.00 in 232 W/m2
07:26 67.7 °F 62.3 °F 29.91 in Calm   4.0 mph 83% 0.00 in 251 W/m2
07:32 68.1 °F 62.0 °F 29.91 in Calm     81% 0.00 in 272 W/m2
07:38 68.1 °F 62.0 °F 29.92 in SW 1.0 mph 2.0 mph 81% 0.00 in 295 W/m2
07:44 68.2 °F 61.8 °F 29.92 in West 1.0 mph 2.0 mph 80% 0.00 in 315 W/m2
07:50 68.5 °F 62.1 °F 29.92 in SW 1.0 mph 1.0 mph 80% 0.00 in 369 W/m2
07:56 68.5 °F 61.7 °F 29.92 in SW 1.0 mph 3.0 mph 79% 0.00 in 385 W/m2
08:02 68.6 °F 61.5 °F 29.93 in SW 2.0 mph 2.0 mph 78% 0.00 in 387 W/m2
08:08 68.5 °F 61.7 °F 29.92 in WSW 2.0 mph 2.0 mph 79% 0.00 in 376 W/m2
08:14 68.8 °F 61.7 °F 29.93 in WNW 1.0 mph 2.0 mph 78% 0.00 in 403 W/m2
08:20 69.2 °F 62.0 °F 29.93 in Calm     78% 0.00 in 422 W/m2
08:26 69.7 °F 62.5 °F 29.93 in Calm     78% 0.00 in 295 W/m2
08:32 69.2 °F 61.7 °F 29.93 in SSW 2.0 mph 5.0 mph 77% 0.00 in 489 W/m2
08:38 69.4 °F 61.9 °F 29.93 in NW 2.0 mph 5.0 mph 77% 0.00 in 519 W/m2
08:44 69.7 °F 62.2 °F 29.93 in WSW 1.0 mph 5.0 mph 77% 0.00 in 584 W/m2
08:50 69.7 °F 61.8 °F 29.93 in NW 1.0 mph 2.0 mph 76% 0.00 in 186 W/m2
08:56 69.4 °F 61.5 °F 29.93 in NNW 2.0 mph 4.0 mph 76% 0.00 in 548 W/m2
09:02 70.0 °F 62.8 °F 29.93 in ENE 2.0 mph 2.0 mph 78% 0.00 in 188 W/m2
09:08 70.0 °F 61.7 °F 29.93 in WSW 2.0 mph 5.0 mph 75% 0.00 in 209 W/m2
09:14 69.7 °F 61.4 °F 29.93 in NNW 2.0 mph 3.0 mph 75% 0.00 in 605 W/m2
09:20 70.2 °F 63.0 °F 29.93 in WNW 2.0 mph 2.0 mph 78% 0.00 in 635 W/m2
09:26 70.8 °F 62.5 °F 29.93 in SSW 2.0 mph 6.0 mph 75% 0.00 in 635 W/m2
09:32 71.1 °F 62.8 °F 29.93 in WSW 2.0 mph 2.0 mph 75% 0.00 in 779 W/m2
09:38 71.2 °F 62.5 °F 29.93 in West 1.0 mph 3.0 mph 74% 0.00 in 209 W/m2
09:44 70.7 °F 61.6 °F 29.93 in South 1.0 mph 2.0 mph 73% 0.00 in 121 W/m2
09:50 70.8 °F 62.1 °F 29.93 in NNW 2.0 mph 2.0 mph 74% 0.00 in 698 W/m2
09:56 71.9 °F 63.5 °F 29.93 in West 1.0 mph 2.0 mph 75% 0.00 in 796 W/m2
10:02 72.4 °F 61.7 °F 29.93 in WNW 1.0 mph 7.0 mph 69% 0.00 in 740 W/m2
10:08 72.5 °F 61.7 °F 29.93 in WNW 1.0 mph 7.0 mph 69% 0.00 in 380 W/m2
10:14 72.2 °F 62.7 °F 29.93 in SW 1.0 mph 1.0 mph 72% 0.00 in 700 W/m2
10:20 72.9 °F 62.1 °F 29.93 in WSW 1.0 mph 1.0 mph 69% 0.00 in 803 W/m2
10:28 72.7 °F 61.9 °F 29.93 in WNW 2.0 mph 10.0 mph 69% 0.00 in 791 W/m2
10:34 73.1 °F 62.3 °F 29.92 in NW 1.0 mph 2.0 mph 69% 0.00 in 798 W/m2
10:40 73.7 °F 63.3 °F 29.92 in West 1.0 mph 1.0 mph 70% 0.00 in 810 W/m2
10:46 73.8 °F 62.6 °F 29.93 in SW 1.0 mph 6.0 mph 68% 0.00 in 854 W/m2
10:52 73.9 °F 63.1 °F 29.93 in SW 2.0 mph 2.0 mph 69% 0.00 in 810 W/m2
10:58 73.7 °F 62.1 °F 29.93 in WSW 3.0 mph 4.0 mph 67% 0.00 in 886 W/m2
11:04 74.0 °F 61.9 °F 29.93 in SW 3.0 mph 4.0 mph 66% 0.00 in 854 W/m2
11:10 74.2 °F 62.1 °F 29.93 in West 3.0 mph 3.0 mph 66% 0.00 in 884 W/m2
11:16 74.7 °F 62.6 °F 29.93 in SW 2.0 mph 3.0 mph 66% 0.00 in 958 W/m2
11:22 74.9 °F 62.3 °F 29.93 in SW 1.0 mph 5.0 mph 65% 0.00 in 905 W/m2
11:28 74.7 °F 61.3 °F 29.93 in WSW 2.0 mph 5.0 mph 63% 0.00 in 898 W/m2
11:34 74.7 °F 61.3 °F 29.93 in NNW 3.0 mph 10.0 mph 63% 0.00 in 893 W/m2
11:40 75.3 °F 61.4 °F 29.93 in SSW 2.0 mph 2.0 mph 62% 0.00 in 905 W/m2
11:46 75.8 °F 62.8 °F 29.93 in WNW 1.0 mph 2.0 mph 64% 0.00 in 923 W/m2
11:52 76.3 °F 64.1 °F 29.93 in North 2.0 mph 2.0 mph 66% 0.00 in 928 W/m2
11:58 76.6 °F 66.1 °F 29.93 in NNW 2.0 mph 3.0 mph 70% 0.00 in 1013 W/m2
12:04 76.5 °F 63.0 °F 29.93 in WSW 2.0 mph 4.0 mph 63% 0.00 in 176 W/m2
12:10 75.5 °F 61.1 °F 29.93 in SW 3.0 mph 4.0 mph 61% 0.00 in 939 W/m2
12:16 75.9 °F 62.8 °F 29.93 in WNW 2.0 mph 4.0 mph 64% 0.00 in 969 W/m2
12:18 76.0 °F 62.0 °F 29.93 in NW 2.0 mph 4.0 mph 62% 0.00 in 965 W/m2
12:24 76.1 °F 60.7 °F 29.93 in SW 2.0 mph 2.0 mph 59% 0.00 in 1051 W/m2
12:30 76.4 °F 62.0 °F 29.93 in South 2.0 mph 3.0 mph 61% 0.00 in 967 W/m2
12:36 76.9 °F 63.3 °F 29.93 in West 3.0 mph 3.0 mph 63% 0.00 in 981 W/m2
12:42 76.4 °F 61.5 °F 29.92 in SW 3.0 mph 6.0 mph 60% 0.00 in 988 W/m2
12:48 76.1 °F 61.2 °F 29.92 in WNW 4.0 mph 6.0 mph 60% 0.00 in 981 W/m2
12:54 76.7 °F 63.2 °F 29.92 in WSW 3.0 mph 8.0 mph 63% 0.00 in 972 W/m2
13:00 76.6 °F 61.7 °F 29.92 in WSW 3.0 mph 3.0 mph 60% 0.00 in 946 W/m2
13:06 77.4 °F 62.9 °F 29.92 in WSW 2.0 mph 4.0 mph 61% 0.00 in 947 W/m2
13:12 78.2 °F 62.7 °F 29.92 in SW 2.0 mph 2.0 mph 59% 0.00 in 1018 W/m2
13:18 77.8 °F 61.8 °F 29.92 in West 2.0 mph 3.0 mph 58% 0.00 in 1020 W/m2
13:24 78.0 °F 63.5 °F 29.92 in NW 2.0 mph 2.0 mph 61% 0.00 in 1123 W/m2
13:30 77.4 °F 62.9 °F 29.92 in NE 1.0 mph 1.0 mph 61% 0.00 in 350 W/m2
13:36 77.3 °F 61.9 °F 29.92 in SW 2.0 mph 5.0 mph 59% 0.00 in 529 W/m2
13:42 77.8 °F 64.6 °F 29.91 in NNW 3.0 mph 3.0 mph 64% 0.00 in 1136 W/m2
13:48 77.9 °F 65.6 °F 29.91 in WNW 1.0 mph 3.0 mph 66% 0.00 in 998 W/m2
13:54 78.7 °F 62.7 °F 29.91 in SW 1.0 mph 2.0 mph 58% 0.00 in 960 W/m2
14:00 78.5 °F 61.5 °F 29.91 in SW 2.0 mph 2.0 mph 56% 0.00 in 250 W/m2
14:06 78.3 °F 63.7 °F 29.91 in WSW 2.0 mph 3.0 mph 61% 0.00 in 946 W/m2
14:12 79.0 °F 63.4 °F 29.91 in NW 2.0 mph 3.0 mph 59% 0.00 in 926 W/m2
14:18 79.2 °F 62.7 °F 29.91 in SW 2.0 mph 3.0 mph 57% 0.00 in 912 W/m2
14:24 79.3 °F 63.2 °F 29.91 in NW 2.0 mph 2.0 mph 58% 0.00 in 174 W/m2
14:30 79.3 °F 63.7 °F 29.91 in NW 2.0 mph 2.0 mph 59% 0.00 in 932 W/m2
14:36 78.8 °F 63.3 °F 29.91 in NW 1.0 mph 3.0 mph 59% 0.00 in 271 W/m2
14:42 78.7 °F 60.1 °F 29.90 in NNW 2.0 mph 5.0 mph 53% 0.00 in 967 W/m2
14:48 79.9 °F 64.3 °F 29.90 in NW 2.0 mph 5.0 mph 59% 0.00 in 244 W/m2
14:54 79.1 °F 60.5 °F 29.90 in SSW 2.0 mph 5.0 mph 53% 0.00 in 243 W/m2
15:00 79.1 °F 63.1 °F 29.89 in NNE 2.0 mph 3.0 mph 58% 0.00 in 364 W/m2
15:06 78.9 °F 61.9 °F 29.89 in NNW 1.0 mph 5.0 mph 56% 0.00 in 199 W/m2
15:12 78.4 °F 61.4 °F 29.89 in North 1.0 mph 3.0 mph 56% 0.00 in 260 W/m2
15:18 79.3 °F 63.2 °F 29.89 in NNW 2.0 mph 5.0 mph 58% 0.00 in 367 W/m2
15:24 79.4 °F 61.3 °F 29.89 in NNE 2.0 mph 2.0 mph 54% 0.00 in 1016 W/m2
15:30 79.5 °F 60.3 °F 29.88 in NNW 2.0 mph 2.0 mph 52% 0.00 in 192 W/m2
15:36 80.0 °F 60.2 °F 29.88 in NW 2.0 mph 4.0 mph 51% 0.00 in 870 W/m2
15:42 80.5 °F 60.1 °F 29.89 in SW 2.0 mph 2.0 mph 50% 0.00 in 847 W/m2
15:48 81.0 °F 60.6 °F 29.89 in NW 2.0 mph 2.0 mph 50% 0.00 in 828 W/m2
15:54 81.0 °F 62.3 °F 29.89 in NW 1.0 mph 3.0 mph 53% 0.00 in 772 W/m2
16:00 80.6 °F 61.9 °F 29.89 in NW 2.0 mph 2.0 mph 53% 0.00 in 779 W/m2
16:06 80.5 °F 61.3 °F 29.89 in NW 2.0 mph 7.0 mph 52% 0.00 in 831 W/m2
16:12 80.0 °F 59.7 °F 29.89 in West 2.0 mph 7.0 mph 50% 0.00 in 650 W/m2
16:18 79.7 °F 61.1 °F 29.88 in NW 2.0 mph 7.0 mph 53% 0.00 in 691 W/m2
16:24 80.1 °F 63.0 °F 29.88 in NW 2.0 mph 2.0 mph 56% 0.00 in 705 W/m2
16:30 80.3 °F 64.2 °F 29.88 in NNW 1.0 mph 1.0 mph 58% 0.00 in 211 W/m2
16:36 80.6 °F 62.4 °F 29.88 in West 1.0 mph 1.0 mph 54% 0.00 in 105 W/m2
16:42 80.2 °F 61.5 °F 29.88 in NNW 1.0 mph 1.0 mph 53% 0.00 in 74 W/m2
16:48 80.1 °F 62.0 °F 29.88 in WSW 1.0 mph 3.0 mph 54% 0.00 in 116 W/m2
16:54 80.0 °F 63.9 °F 29.88 in NW 2.0 mph 3.0 mph 58% 0.00 in 65 W/m2
17:00 80.1 °F 60.9 °F 29.87 in NW 1.0 mph 1.0 mph 52% 0.00 in 236 W/m2
17:06 80.1 °F 62.0 °F 29.87 in North 1.0 mph 1.0 mph 54% 0.00 in 83 W/m2
17:12 79.8 °F 62.7 °F 29.87 in North 1.0 mph 2.0 mph 56% 0.00 in 113 W/m2
17:18 79.7 °F 61.6 °F 29.87 in WSW 1.0 mph 4.0 mph 54% 0.00 in 83 W/m2
17:24 79.6 °F 62.0 °F 29.86 in NW 1.0 mph 4.0 mph 55% 0.00 in 83 W/m2
17:30 79.6 °F 61.5 °F 29.86 in NW 1.0 mph 1.0 mph 54% 0.00 in 72 W/m2
17:36 79.2 °F 61.1 °F 29.86 in NW 2.0 mph 3.0 mph 54% 0.00 in 100 W/m2
17:42 78.9 °F 61.9 °F 29.86 in NW 1.0 mph 3.0 mph 56% 0.00 in 174 W/m2
17:48 78.9 °F 62.4 °F 29.86 in NW 1.0 mph 1.0 mph 57% 0.00 in 160 W/m2
17:54 79.0 °F 61.5 °F 29.86 in NNW 2.0 mph 3.0 mph 55% 0.00 in 137 W/m2
18:00 79.0 °F 62.5 °F 29.86 in NNW 2.0 mph 3.0 mph 57% 0.00 in 158 W/m2
18:06 79.2 °F 62.1 °F 29.86 in NW 2.0 mph 3.0 mph 56% 0.00 in 130 W/m2
18:12 79.2 °F 63.1 °F 29.86 in WSW 2.0 mph 2.0 mph 58% 0.00 in 69 W/m2
18:18 78.9 °F 62.9 °F 29.86 in NNW 1.0 mph 2.0 mph 58% 0.00 in 81 W/m2
18:24 78.7 °F 62.2 °F 29.86 in NNW 1.0 mph 2.0 mph 57% 0.00 in 97 W/m2
18:30 78.7 °F 62.2 °F 29.86 in NW 1.0 mph 1.0 mph 57% 0.00 in 81 W/m2
18:36 78.7 °F 62.7 °F 29.86 in NW 1.0 mph 1.0 mph 58% 0.00 in 102 W/m2
18:42 78.7 °F 63.2 °F 29.87 in NW 1.0 mph 1.0 mph 59% 0.00 in 86 W/m2
18:48 78.6 °F 62.1 °F 29.87 in NW 1.0 mph 4.0 mph 57% 0.00 in 83 W/m2
18:54 78.4 °F 62.4 °F 29.87 in NW 1.0 mph 1.0 mph 58% 0.00 in 70 W/m2
19:00 78.2 °F 62.7 °F 29.87 in Calm   3.0 mph 59% 0.00 in 63 W/m2
19:06 78.1 °F 62.1 °F 29.87 in NW 1.0 mph 3.0 mph 58% 0.00 in 51 W/m2
19:12 78.0 °F 62.5 °F 29.87 in Calm   1.0 mph 59% 0.00 in 40 W/m2
19:18 77.6 °F 63.1 °F 29.88 in Calm   1.0 mph 61% 0.00 in 37 W/m2
19:24 77.2 °F 63.2 °F 29.88 in Calm     62% 0.00 in 44 W/m2
19:30 77.1 °F 64.0 °F 29.88 in Calm     64% 0.00 in 47 W/m2
19:36 77.0 °F 63.9 °F 29.88 in Calm     64% 0.00 in 39 W/m2
19:42 76.9 °F 64.7 °F 29.88 in Calm     66% 0.00 in 39 W/m2
19:48 76.8 °F 64.1 °F 29.88 in Calm   2.0 mph 65% 0.00 in 35 W/m2
19:54 76.6 °F 64.4 °F 29.88 in Calm     66% 0.00 in 30 W/m2
20:00 76.3 °F 65.0 °F 29.87 in Calm     68% 0.00 in 26 W/m2
20:06 75.6 °F 65.5 °F 29.87 in Calm     71% 0.00 in 19 W/m2
20:12 75.2 °F 60.8 °F 29.87 in SSW 1.0 mph 1.0 mph 61% 0.00 in 18 W/m2
20:18 75.6 °F 59.8 °F 29.87 in SW 2.0 mph 3.0 mph 58% 0.00 in 12 W/m2
20:24 75.7 °F 59.9 °F 29.88 in SW 2.0 mph 2.0 mph 58% 0.00 in 12 W/m2
20:30 75.6 °F 58.8 °F 29.87 in SW 1.0 mph 1.0 mph 56% 0.00 in 11 W/m2
20:36 75.4 °F 58.1 °F 29.87 in WSW 1.0 mph 2.0 mph 55% 0.00 in 7 W/m2
20:42 75.3 °F 57.5 °F 29.88 in WSW 1.0 mph 2.0 mph 54% 0.00 in 5 W/m2
20:48 75.0 °F 57.7 °F 29.88 in WSW 1.0 mph 2.0 mph 55% 0.00 in 0 W/m2
20:54 74.7 °F 57.5 °F 29.88 in SW 1.0 mph 4.0 mph 55% 0.00 in 0 W/m2
21:00 74.6 °F 57.4 °F 29.88 in SW 1.0 mph 1.0 mph 55% 0.00 in 0 W/m2
21:06 74.3 °F 57.1 °F 29.88 in WSW 1.0 mph 1.0 mph 55% 0.00 in 0 W/m2
21:12 74.0 °F 56.8 °F 29.88 in WSW 1.0 mph 3.0 mph 55% 0.00 in 0 W/m2
21:18 73.8 °F 56.6 °F 29.88 in WSW 1.0 mph 3.0 mph 55% 0.00 in 0 W/m2
21:24 73.5 °F 56.8 °F 29.88 in Calm   1.0 mph 56% 0.00 in 0 W/m2
21:30 73.2 °F 57.1 °F 29.88 in Calm   1.0 mph 57% 0.00 in 0 W/m2
21:36 73.0 °F 56.9 °F 29.87 in Calm   1.0 mph 57% 0.00 in 0 W/m2
21:42 72.9 °F 57.3 °F 29.88 in SW 1.0 mph 2.0 mph 58% 0.00 in 0 W/m2
21:48 72.9 °F 57.3 °F 29.88 in SW 1.0 mph 2.0 mph 58% 0.00 in 0 W/m2
21:54 72.9 °F 57.3 °F 29.87 in SW 1.0 mph 2.0 mph 58% 0.00 in 0 W/m2
22:00 72.8 °F 57.2 °F 29.87 in SW 1.0 mph 1.0 mph 58% 0.00 in 0 W/m2
22:06 72.6 °F 57.4 °F 29.88 in Calm   1.0 mph 59% 0.00 in 0 W/m2
22:12 72.3 °F 57.2 °F 29.88 in Calm     59% 0.00 in 0 W/m2
22:18 71.9 °F 57.7 °F 29.88 in SW 1.0 mph 3.0 mph 61% 0.00 in 0 W/m2
22:24 71.8 °F 57.2 °F 29.88 in WSW 1.0 mph 3.0 mph 60% 0.00 in 0 W/m2
22:30 71.9 °F 57.3 °F 29.88 in SW 2.0 mph 2.0 mph 60% 0.00 in 0 W/m2
22:36 71.9 °F 57.3 °F 29.87 in WSW 2.0 mph 2.0 mph 60% 0.00 in 0 W/m2
22:42 71.6 °F 57.4 °F 29.88 in WSW 1.0 mph 1.0 mph 61% 0.00 in 0 W/m2
22:48 71.2 °F 57.1 °F 29.88 in Calm   1.0 mph 61% 0.00 in 0 W/m2
22:54 70.8 °F 57.1 °F 29.88 in Calm   1.0 mph 62% 0.00 in 0 W/m2
23:00 70.6 °F 56.9 °F 29.88 in WSW 1.0 mph 3.0 mph 62% 0.00 in 0 W/m2
23:06 70.6 °F 56.5 °F 29.88 in SW 1.0 mph 6.0 mph 61% 0.00 in 0 W/m2
23:12 71.0 °F 55.9 °F 29.88 in SW 2.0 mph 2.0 mph 59% 0.00 in 0 W/m2
23:18 71.3 °F 55.8 °F 29.88 in WSW 2.0 mph 2.0 mph 58% 0.00 in 0 W/m2
23:24 71.4 °F 55.9 °F 29.88 in WSW 2.0 mph 3.0 mph 58% 0.00 in 0 W/m2
23:30 71.6 °F 56.0 °F 29.88 in WSW 2.0 mph 4.0 mph 58% 0.00 in 0 W/m2
23:36 71.6 °F 56.5 °F 29.88 in WSW 2.0 mph 4.0 mph 59% 0.00 in 0 W/m2
23:42 71.5 °F 55.9 °F 29.88 in WSW 1.0 mph 2.0 mph 58% 0.00 in 0 W/m2
23:48 71.6 °F 56.0 °F 29.88 in WSW 2.0 mph 3.0 mph 58% 0.00 in 0 W/m2
23:54 71.6 °F 56.0 °F 29.88 in WSW 1.0 mph 4.0 mph 58% 0.00 in 0 W/m2
Country Meadow, Clay, NY, USA
Compliments of Weather Underground - 2 mb